sensor_id;sensor_type;location;lat;lon;timestamp;P1;durP1;ratioP1;P2;durP2;ratioP2
17844;SDS011;9047;53.486;10.218;2023-03-12T00:04:15;8.10;;;4.70;;
17844;SDS011;9047;53.486;10.218;2023-03-12T00:06:48;7.28;;;4.68;;
17844;SDS011;9047;53.486;10.218;2023-03-12T00:09:28;10.13;;;5.07;;
17844;SDS011;9047;53.486;10.218;2023-03-12T00:11:56;7.82;;;4.60;;
17844;SDS011;9047;53.486;10.218;2023-03-12T00:14:26;6.15;;;4.28;;
17844;SDS011;9047;53.486;10.218;2023-03-12T00:16:55;8.13;;;4.70;;
17844;SDS011;9047;53.486;10.218;2023-03-12T00:19:22;6.40;;;4.57;;
17844;SDS011;9047;53.486;10.218;2023-03-12T00:21:52;8.13;;;4.85;;
17844;SDS011;9047;53.486;10.218;2023-03-12T00:24:22;9.32;;;4.88;;
17844;SDS011;9047;53.486;10.218;2023-03-12T00:26:53;8.40;;;5.22;;
17844;SDS011;9047;53.486;10.218;2023-03-12T00:29:23;10.68;;;5.55;;
17844;SDS011;9047;53.486;10.218;2023-03-12T00:31:51;11.55;;;5.55;;
17844;SDS011;9047;53.486;10.218;2023-03-12T00:34:19;10.88;;;5.40;;
17844;SDS011;9047;53.486;10.218;2023-03-12T00:36:46;10.25;;;5.47;;
17844;SDS011;9047;53.486;10.218;2023-03-12T00:39:15;11.20;;;5.68;;
17844;SDS011;9047;53.486;10.218;2023-03-12T00:41:46;10.88;;;5.88;;
17844;SDS011;9047;53.486;10.218;2023-03-12T00:44:16;10.55;;;6.05;;
17844;SDS011;9047;53.486;10.218;2023-03-12T00:46:45;8.43;;;5.95;;
17844;SDS011;9047;53.486;10.218;2023-03-12T00:49:12;11.73;;;5.85;;
17844;SDS011;9047;53.486;10.218;2023-03-12T00:51:41;11.35;;;5.90;;
17844;SDS011;9047;53.486;10.218;2023-03-12T00:54:09;9.13;;;5.68;;
17844;SDS011;9047;53.486;10.218;2023-03-12T00:56:41;9.68;;;5.90;;
17844;SDS011;9047;53.486;10.218;2023-03-12T00:59:12;12.23;;;6.05;;
17844;SDS011;9047;53.486;10.218;2023-03-12T01:01:41;11.48;;;6.30;;
17844;SDS011;9047;53.486;10.218;2023-03-12T01:04:10;11.65;;;6.18;;
17844;SDS011;9047;53.486;10.218;2023-03-12T01:06:38;9.80;;;6.20;;
17844;SDS011;9047;53.486;10.218;2023-03-12T01:09:06;12.18;;;7.18;;
17844;SDS011;9047;53.486;10.218;2023-03-12T01:11:38;11.48;;;6.55;;
17844;SDS011;9047;53.486;10.218;2023-03-12T01:14:08;13.15;;;7.43;;
17844;SDS011;9047;53.486;10.218;2023-03-12T01:16:36;15.45;;;8.30;;
17844;SDS011;9047;53.486;10.218;2023-03-12T01:19:09;15.25;;;8.32;;
17844;SDS011;9047;53.486;10.218;2023-03-12T01:21:37;18.15;;;8.00;;
17844;SDS011;9047;53.486;10.218;2023-03-12T01:24:07;18.58;;;9.13;;
17844;SDS011;9047;53.486;10.218;2023-03-12T01:26:38;15.82;;;8.48;;
17844;SDS011;9047;53.486;10.218;2023-03-12T01:29:10;15.32;;;7.53;;
17844;SDS011;9047;53.486;10.218;2023-03-12T01:31:40;14.63;;;7.95;;
17844;SDS011;9047;53.486;10.218;2023-03-12T01:34:11;12.60;;;7.40;;
17844;SDS011;9047;53.486;10.218;2023-03-12T01:36:39;12.55;;;7.97;;
17844;SDS011;9047;53.486;10.218;2023-03-12T01:39:06;13.25;;;8.18;;
17844;SDS011;9047;53.486;10.218;2023-03-12T01:41:39;12.43;;;7.95;;
17844;SDS011;9047;53.486;10.218;2023-03-12T01:44:10;13.82;;;8.50;;
17844;SDS011;9047;53.486;10.218;2023-03-12T01:46:41;12.73;;;7.90;;
17844;SDS011;9047;53.486;10.218;2023-03-12T01:49:22;15.07;;;7.90;;
17844;SDS011;9047;53.486;10.218;2023-03-12T01:51:52;11.32;;;7.45;;
17844;SDS011;9047;53.486;10.218;2023-03-12T01:54:26;11.55;;;7.40;;
17844;SDS011;9047;53.486;10.218;2023-03-12T01:57:11;14.13;;;7.50;;
17844;SDS011;9047;53.486;10.218;2023-03-12T01:59:42;11.43;;;7.53;;
17844;SDS011;9047;53.486;10.218;2023-03-12T02:02:14;13.18;;;7.28;;
17844;SDS011;9047;53.486;10.218;2023-03-12T02:04:51;11.70;;;7.57;;
17844;SDS011;9047;53.486;10.218;2023-03-12T02:07:22;12.88;;;7.47;;
17844;SDS011;9047;53.486;10.218;2023-03-12T02:10:00;12.90;;;7.72;;
17844;SDS011;9047;53.486;10.218;2023-03-12T02:12:36;12.23;;;7.53;;
17844;SDS011;9047;53.486;10.218;2023-03-12T02:15:03;14.40;;;7.93;;
17844;SDS011;9047;53.486;10.218;2023-03-12T02:17:36;12.27;;;7.50;;
17844;SDS011;9047;53.486;10.218;2023-03-12T02:20:06;12.38;;;7.95;;
17844;SDS011;9047;53.486;10.218;2023-03-12T02:22:45;12.57;;;7.30;;
17844;SDS011;9047;53.486;10.218;2023-03-12T02:25:29;14.43;;;7.35;;
17844;SDS011;9047;53.486;10.218;2023-03-12T02:28:01;13.82;;;7.75;;
17844;SDS011;9047;53.486;10.218;2023-03-12T02:30:33;17.02;;;8.80;;
17844;SDS011;9047;53.486;10.218;2023-03-12T02:33:04;16.70;;;8.40;;
17844;SDS011;9047;53.486;10.218;2023-03-12T02:35:36;14.05;;;8.35;;
17844;SDS011;9047;53.486;10.218;2023-03-12T02:41:17;17.92;;;7.93;;
17844;SDS011;9047;53.486;10.218;2023-03-12T02:43:48;13.35;;;8.35;;
17844;SDS011;9047;53.486;10.218;2023-03-12T02:46:22;14.82;;;7.60;;
17844;SDS011;9047;53.486;10.218;2023-03-12T02:48:51;13.52;;;7.72;;
17844;SDS011;9047;53.486;10.218;2023-03-12T02:51:20;12.02;;;8.02;;
17844;SDS011;9047;53.486;10.218;2023-03-12T02:53:52;14.65;;;7.93;;
17844;SDS011;9047;53.486;10.218;2023-03-12T02:56:24;11.95;;;7.50;;
17844;SDS011;9047;53.486;10.218;2023-03-12T02:59:00;14.35;;;7.97;;
17844;SDS011;9047;53.486;10.218;2023-03-12T03:01:27;16.35;;;7.72;;
17844;SDS011;9047;53.486;10.218;2023-03-12T03:03:58;12.38;;;6.85;;
17844;SDS011;9047;53.486;10.218;2023-03-12T03:06:26;12.05;;;7.35;;
17844;SDS011;9047;53.486;10.218;2023-03-12T03:08:54;13.48;;;7.32;;
17844;SDS011;9047;53.486;10.218;2023-03-12T03:11:24;12.23;;;7.57;;
17844;SDS011;9047;53.486;10.218;2023-03-12T03:13:52;12.52;;;7.22;;
17844;SDS011;9047;53.486;10.218;2023-03-12T03:16:22;12.23;;;7.30;;
17844;SDS011;9047;53.486;10.218;2023-03-12T03:18:50;12.70;;;7.25;;
17844;SDS011;9047;53.486;10.218;2023-03-12T03:21:22;13.77;;;7.15;;
17844;SDS011;9047;53.486;10.218;2023-03-12T03:23:49;11.65;;;7.90;;
17844;SDS011;9047;53.486;10.218;2023-03-12T03:26:20;13.57;;;7.15;;
17844;SDS011;9047;53.486;10.218;2023-03-12T03:28:59;13.02;;;7.55;;
17844;SDS011;9047;53.486;10.218;2023-03-12T03:31:28;12.00;;;7.80;;
17844;SDS011;9047;53.486;10.218;2023-03-12T03:33:55;10.77;;;7.18;;
17844;SDS011;9047;53.486;10.218;2023-03-12T03:36:22;14.23;;;8.13;;
17844;SDS011;9047;53.486;10.218;2023-03-12T03:38:50;12.73;;;7.88;;
17844;SDS011;9047;53.486;10.218;2023-03-12T03:41:19;15.13;;;8.68;;
17844;SDS011;9047;53.486;10.218;2023-03-12T03:43:47;14.02;;;8.75;;
17844;SDS011;9047;53.486;10.218;2023-03-12T03:46:16;15.27;;;8.40;;
17844;SDS011;9047;53.486;10.218;2023-03-12T03:48:43;13.65;;;8.48;;
17844;SDS011;9047;53.486;10.218;2023-03-12T03:51:11;15.75;;;9.07;;
17844;SDS011;9047;53.486;10.218;2023-03-12T03:53:38;16.88;;;8.98;;
17844;SDS011;9047;53.486;10.218;2023-03-12T03:56:05;15.73;;;8.90;;
17844;SDS011;9047;53.486;10.218;2023-03-12T03:58:33;18.65;;;9.38;;
17844;SDS011;9047;53.486;10.218;2023-03-12T04:00:59;14.77;;;9.10;;
17844;SDS011;9047;53.486;10.218;2023-03-12T04:03:29;16.25;;;9.90;;
17844;SDS011;9047;53.486;10.218;2023-03-12T04:05:57;16.45;;;9.60;;
17844;SDS011;9047;53.486;10.218;2023-03-12T04:08:25;20.85;;;9.93;;
17844;SDS011;9047;53.486;10.218;2023-03-12T04:10:53;16.83;;;9.77;;
17844;SDS011;9047;53.486;10.218;2023-03-12T04:13:24;19.65;;;10.13;;
17844;SDS011;9047;53.486;10.218;2023-03-12T04:15:52;14.48;;;9.30;;
17844;SDS011;9047;53.486;10.218;2023-03-12T04:18:20;19.08;;;10.48;;
17844;SDS011;9047;53.486;10.218;2023-03-12T04:20:51;18.50;;;9.65;;
17844;SDS011;9047;53.486;10.218;2023-03-12T04:23:20;16.02;;;9.68;;
17844;SDS011;9047;53.486;10.218;2023-03-12T04:25:47;17.40;;;9.77;;
17844;SDS011;9047;53.486;10.218;2023-03-12T04:28:15;20.23;;;9.98;;
17844;SDS011;9047;53.486;10.218;2023-03-12T04:30:43;20.20;;;10.23;;
17844;SDS011;9047;53.486;10.218;2023-03-12T04:33:10;17.35;;;10.02;;
17844;SDS011;9047;53.486;10.218;2023-03-12T04:35:37;17.50;;;9.43;;
17844;SDS011;9047;53.486;10.218;2023-03-12T04:38:08;17.75;;;9.63;;
17844;SDS011;9047;53.486;10.218;2023-03-12T04:40:35;18.30;;;9.88;;
17844;SDS011;9047;53.486;10.218;2023-03-12T04:43:03;16.92;;;9.73;;
17844;SDS011;9047;53.486;10.218;2023-03-12T04:45:29;18.35;;;9.63;;
17844;SDS011;9047;53.486;10.218;2023-03-12T04:47:57;16.13;;;9.77;;
17844;SDS011;9047;53.486;10.218;2023-03-12T04:50:24;16.58;;;9.18;;
17844;SDS011;9047;53.486;10.218;2023-03-12T04:52:52;17.20;;;10.13;;
17844;SDS011;9047;53.486;10.218;2023-03-12T04:55:20;20.90;;;10.20;;
17844;SDS011;9047;53.486;10.218;2023-03-12T04:57:48;20.27;;;9.90;;
17844;SDS011;9047;53.486;10.218;2023-03-12T05:00:17;17.50;;;10.13;;
17844;SDS011;9047;53.486;10.218;2023-03-12T05:02:45;17.80;;;10.13;;
17844;SDS011;9047;53.486;10.218;2023-03-12T05:05:12;20.05;;;9.90;;
17844;SDS011;9047;53.486;10.218;2023-03-12T05:07:39;16.05;;;9.10;;
17844;SDS011;9047;53.486;10.218;2023-03-12T05:10:06;21.05;;;10.02;;
17844;SDS011;9047;53.486;10.218;2023-03-12T05:12:35;18.77;;;10.27;;
17844;SDS011;9047;53.486;10.218;2023-03-12T05:15:03;18.65;;;9.90;;
17844;SDS011;9047;53.486;10.218;2023-03-12T05:17:34;22.35;;;11.20;;
17844;SDS011;9047;53.486;10.218;2023-03-12T05:20:06;19.27;;;10.05;;
17844;SDS011;9047;53.486;10.218;2023-03-12T05:22:35;21.98;;;10.75;;
17844;SDS011;9047;53.486;10.218;2023-03-12T05:25:04;18.63;;;10.23;;
17844;SDS011;9047;53.486;10.218;2023-03-12T05:27:36;20.75;;;10.65;;
17844;SDS011;9047;53.486;10.218;2023-03-12T05:30:04;21.25;;;10.80;;
17844;SDS011;9047;53.486;10.218;2023-03-12T05:32:33;21.90;;;11.60;;
17844;SDS011;9047;53.486;10.218;2023-03-12T05:35:01;21.75;;;11.15;;
17844;SDS011;9047;53.486;10.218;2023-03-12T05:37:28;20.52;;;11.23;;
17844;SDS011;9047;53.486;10.218;2023-03-12T05:39:55;20.80;;;11.50;;
17844;SDS011;9047;53.486;10.218;2023-03-12T05:42:22;22.27;;;11.98;;
17844;SDS011;9047;53.486;10.218;2023-03-12T05:44:51;20.67;;;12.00;;
17844;SDS011;9047;53.486;10.218;2023-03-12T05:47:18;24.02;;;11.85;;
17844;SDS011;9047;53.486;10.218;2023-03-12T05:49:46;25.10;;;12.43;;
17844;SDS011;9047;53.486;10.218;2023-03-12T05:52:14;23.10;;;12.65;;
17844;SDS011;9047;53.486;10.218;2023-03-12T05:54:41;26.83;;;12.93;;
17844;SDS011;9047;53.486;10.218;2023-03-12T05:57:10;29.70;;;12.95;;
17844;SDS011;9047;53.486;10.218;2023-03-12T05:59:39;24.45;;;12.90;;
17844;SDS011;9047;53.486;10.218;2023-03-12T06:02:09;20.27;;;12.07;;
17844;SDS011;9047;53.486;10.218;2023-03-12T06:04:37;24.70;;;13.57;;
17844;SDS011;9047;53.486;10.218;2023-03-12T06:07:04;22.00;;;12.85;;
17844;SDS011;9047;53.486;10.218;2023-03-12T06:09:31;24.08;;;12.45;;
17844;SDS011;9047;53.486;10.218;2023-03-12T06:11:58;24.50;;;13.27;;
17844;SDS011;9047;53.486;10.218;2023-03-12T06:14:27;24.15;;;13.40;;
17844;SDS011;9047;53.486;10.218;2023-03-12T06:16:57;22.13;;;13.82;;
17844;SDS011;9047;53.486;10.218;2023-03-12T06:19:26;25.58;;;13.65;;
17844;SDS011;9047;53.486;10.218;2023-03-12T06:21:53;24.73;;;13.23;;
17844;SDS011;9047;53.486;10.218;2023-03-12T06:24:20;25.45;;;13.02;;
17844;SDS011;9047;53.486;10.218;2023-03-12T06:27:05;25.15;;;13.10;;
17844;SDS011;9047;53.486;10.218;2023-03-12T06:29:33;25.35;;;13.15;;
17844;SDS011;9047;53.486;10.218;2023-03-12T06:32:01;18.42;;;11.55;;
17844;SDS011;9047;53.486;10.218;2023-03-12T06:34:33;22.73;;;11.90;;
17844;SDS011;9047;53.486;10.218;2023-03-12T06:37:00;22.67;;;11.82;;
17844;SDS011;9047;53.486;10.218;2023-03-12T06:39:36;21.02;;;11.23;;
17844;SDS011;9047;53.486;10.218;2023-03-12T06:42:06;22.08;;;11.68;;
17844;SDS011;9047;53.486;10.218;2023-03-12T06:44:34;19.27;;;10.95;;
17844;SDS011;9047;53.486;10.218;2023-03-12T06:47:03;16.08;;;10.48;;
17844;SDS011;9047;53.486;10.218;2023-03-12T06:49:32;17.23;;;10.23;;
17844;SDS011;9047;53.486;10.218;2023-03-12T06:52:04;20.02;;;11.07;;
17844;SDS011;9047;53.486;10.218;2023-03-12T06:54:33;19.27;;;10.27;;
17844;SDS011;9047;53.486;10.218;2023-03-12T06:57:01;16.52;;;10.20;;
17844;SDS011;9047;53.486;10.218;2023-03-12T06:59:28;19.50;;;10.10;;
17844;SDS011;9047;53.486;10.218;2023-03-12T07:01:55;21.05;;;10.38;;
17844;SDS011;9047;53.486;10.218;2023-03-12T07:04:22;20.10;;;10.50;;
17844;SDS011;9047;53.486;10.218;2023-03-12T07:06:50;17.02;;;10.18;;
17844;SDS011;9047;53.486;10.218;2023-03-12T07:09:18;14.98;;;9.52;;
17844;SDS011;9047;53.486;10.218;2023-03-12T07:11:45;15.77;;;9.35;;
17844;SDS011;9047;53.486;10.218;2023-03-12T07:14:13;11.63;;;7.75;;
17844;SDS011;9047;53.486;10.218;2023-03-12T07:16:40;10.32;;;7.15;;
17844;SDS011;9047;53.486;10.218;2023-03-12T07:19:11;14.10;;;7.43;;
17844;SDS011;9047;53.486;10.218;2023-03-12T07:21:38;19.67;;;9.32;;
17844;SDS011;9047;53.486;10.218;2023-03-12T07:24:11;12.75;;;6.78;;
17844;SDS011;9047;53.486;10.218;2023-03-12T07:26:41;14.07;;;6.55;;
17844;SDS011;9047;53.486;10.218;2023-03-12T07:29:08;11.50;;;5.75;;
17844;SDS011;9047;53.486;10.218;2023-03-12T07:31:36;9.77;;;6.32;;
17844;SDS011;9047;53.486;10.218;2023-03-12T07:34:04;10.88;;;5.70;;
17844;SDS011;9047;53.486;10.218;2023-03-12T07:36:32;11.00;;;5.95;;
17844;SDS011;9047;53.486;10.218;2023-03-12T07:38:59;8.82;;;5.43;;
17844;SDS011;9047;53.486;10.218;2023-03-12T07:41:29;11.63;;;5.95;;
17844;SDS011;9047;53.486;10.218;2023-03-12T07:43:57;12.13;;;6.15;;
17844;SDS011;9047;53.486;10.218;2023-03-12T07:46:24;10.40;;;5.82;;
17844;SDS011;9047;53.486;10.218;2023-03-12T07:48:51;9.75;;;5.63;;
17844;SDS011;9047;53.486;10.218;2023-03-12T07:51:19;11.68;;;6.20;;
17844;SDS011;9047;53.486;10.218;2023-03-12T07:53:46;8.90;;;5.65;;
17844;SDS011;9047;53.486;10.218;2023-03-12T07:56:13;9.13;;;5.40;;
17844;SDS011;9047;53.486;10.218;2023-03-12T07:58:43;8.38;;;5.00;;
17844;SDS011;9047;53.486;10.218;2023-03-12T08:01:11;10.50;;;5.47;;
17844;SDS011;9047;53.486;10.218;2023-03-12T08:03:41;9.18;;;5.75;;
17844;SDS011;9047;53.486;10.218;2023-03-12T08:06:11;7.22;;;4.78;;
17844;SDS011;9047;53.486;10.218;2023-03-12T08:08:40;10.52;;;4.97;;
17844;SDS011;9047;53.486;10.218;2023-03-12T08:11:08;8.50;;;4.80;;
17844;SDS011;9047;53.486;10.218;2023-03-12T08:13:36;8.02;;;4.47;;
17844;SDS011;9047;53.486;10.218;2023-03-12T08:16:05;7.38;;;4.68;;
17844;SDS011;9047;53.486;10.218;2023-03-12T08:18:32;6.75;;;4.28;;
17844;SDS011;9047;53.486;10.218;2023-03-12T08:21:00;5.82;;;4.10;;
17844;SDS011;9047;53.486;10.218;2023-03-12T08:23:26;7.93;;;4.60;;
17844;SDS011;9047;53.486;10.218;2023-03-12T08:25:54;7.60;;;4.32;;
17844;SDS011;9047;53.486;10.218;2023-03-12T08:28:24;9.98;;;4.32;;
17844;SDS011;9047;53.486;10.218;2023-03-12T08:30:52;6.75;;;3.95;;
17844;SDS011;9047;53.486;10.218;2023-03-12T08:33:23;7.18;;;3.88;;
17844;SDS011;9047;53.486;10.218;2023-03-12T08:35:53;7.82;;;3.95;;
17844;SDS011;9047;53.486;10.218;2023-03-12T08:38:21;6.75;;;4.10;;
17844;SDS011;9047;53.486;10.218;2023-03-12T08:40:53;9.43;;;4.25;;
17844;SDS011;9047;53.486;10.218;2023-03-12T08:43:25;7.93;;;4.38;;
17844;SDS011;9047;53.486;10.218;2023-03-12T08:45:54;6.72;;;3.95;;
17844;SDS011;9047;53.486;10.218;2023-03-12T08:48:24;6.72;;;3.92;;
17844;SDS011;9047;53.486;10.218;2023-03-12T08:50:54;7.70;;;3.75;;
17844;SDS011;9047;53.486;10.218;2023-03-12T08:53:23;7.40;;;4.00;;
17844;SDS011;9047;53.486;10.218;2023-03-12T08:55:52;8.23;;;4.32;;
17844;SDS011;9047;53.486;10.218;2023-03-12T08:58:20;5.97;;;3.90;;
17844;SDS011;9047;53.486;10.218;2023-03-12T09:00:50;9.00;;;4.13;;
17844;SDS011;9047;53.486;10.218;2023-03-12T09:03:18;9.15;;;3.83;;
17844;SDS011;9047;53.486;10.218;2023-03-12T09:05:50;5.80;;;3.80;;
17844;SDS011;9047;53.486;10.218;2023-03-12T09:08:29;7.03;;;3.60;;
17844;SDS011;9047;53.486;10.218;2023-03-12T09:10:58;7.50;;;3.63;;
17844;SDS011;9047;53.486;10.218;2023-03-12T09:13:27;5.72;;;3.80;;
17844;SDS011;9047;53.486;10.218;2023-03-12T09:15:59;7.78;;;3.90;;
17844;SDS011;9047;53.486;10.218;2023-03-12T09:18:27;9.52;;;4.00;;
17844;SDS011;9047;53.486;10.218;2023-03-12T09:21:03;8.63;;;3.85;;
17844;SDS011;9047;53.486;10.218;2023-03-12T09:23:32;7.55;;;4.00;;
17844;SDS011;9047;53.486;10.218;2023-03-12T09:26:00;7.57;;;3.63;;
17844;SDS011;9047;53.486;10.218;2023-03-12T09:28:27;6.75;;;3.65;;
17844;SDS011;9047;53.486;10.218;2023-03-12T09:31:03;7.80;;;3.50;;
17844;SDS011;9047;53.486;10.218;2023-03-12T09:33:38;6.32;;;3.50;;
17844;SDS011;9047;53.486;10.218;2023-03-12T09:36:08;5.78;;;3.58;;
17844;SDS011;9047;53.486;10.218;2023-03-12T09:38:48;7.55;;;3.58;;
17844;SDS011;9047;53.486;10.218;2023-03-12T09:41:29;6.38;;;3.70;;
17844;SDS011;9047;53.486;10.218;2023-03-12T09:44:28;7.47;;;4.00;;
17844;SDS011;9047;53.486;10.218;2023-03-12T09:47:07;7.05;;;3.58;;
17844;SDS011;9047;53.486;10.218;2023-03-12T09:49:40;7.10;;;3.80;;
17844;SDS011;9047;53.486;10.218;2023-03-12T09:52:16;7.93;;;3.80;;
17844;SDS011;9047;53.486;10.218;2023-03-12T09:54:51;8.77;;;3.88;;
17844;SDS011;9047;53.486;10.218;2023-03-12T09:57:27;6.72;;;3.55;;
17844;SDS011;9047;53.486;10.218;2023-03-12T09:59:54;6.53;;;3.65;;
17844;SDS011;9047;53.486;10.218;2023-03-12T10:02:28;7.50;;;3.72;;
17844;SDS011;9047;53.486;10.218;2023-03-12T10:05:22;7.38;;;3.85;;
17844;SDS011;9047;53.486;10.218;2023-03-12T10:08:05;7.70;;;3.83;;
17844;SDS011;9047;53.486;10.218;2023-03-12T10:10:49;8.85;;;4.82;;
17844;SDS011;9047;53.486;10.218;2023-03-12T10:13:27;8.02;;;4.20;;
17844;SDS011;9047;53.486;10.218;2023-03-12T10:16:11;8.32;;;3.78;;
17844;SDS011;9047;53.486;10.218;2023-03-12T10:18:56;6.35;;;3.38;;
17844;SDS011;9047;53.486;10.218;2023-03-12T10:21:37;8.00;;;3.78;;
17844;SDS011;9047;53.486;10.218;2023-03-12T10:24:29;8.23;;;3.85;;
17844;SDS011;9047;53.486;10.218;2023-03-12T10:27:10;5.40;;;3.17;;
17844;SDS011;9047;53.486;10.218;2023-03-12T10:29:59;6.57;;;3.65;;
17844;SDS011;9047;53.486;10.218;2023-03-12T10:32:30;7.72;;;4.13;;
17844;SDS011;9047;53.486;10.218;2023-03-12T10:35:13;7.68;;;3.42;;
17844;SDS011;9047;53.486;10.218;2023-03-12T10:37:43;6.43;;;3.40;;
17844;SDS011;9047;53.486;10.218;2023-03-12T10:40:21;6.32;;;3.50;;
17844;SDS011;9047;53.486;10.218;2023-03-12T10:42:51;6.90;;;3.55;;
17844;SDS011;9047;53.486;10.218;2023-03-12T10:45:26;11.00;;;3.70;;
17844;SDS011;9047;53.486;10.218;2023-03-12T10:48:16;5.70;;;3.22;;
17844;SDS011;9047;53.486;10.218;2023-03-12T10:50:58;6.10;;;3.35;;
17844;SDS011;9047;53.486;10.218;2023-03-12T10:53:30;9.90;;;3.17;;
17844;SDS011;9047;53.486;10.218;2023-03-12T10:56:05;8.93;;;3.53;;
17844;SDS011;9047;53.486;10.218;2023-03-12T10:58:35;7.72;;;3.67;;
17844;SDS011;9047;53.486;10.218;2023-03-12T11:01:04;7.65;;;3.83;;
17844;SDS011;9047;53.486;10.218;2023-03-12T11:03:41;6.55;;;3.40;;
17844;SDS011;9047;53.486;10.218;2023-03-12T11:06:10;11.38;;;3.22;;
17844;SDS011;9047;53.486;10.218;2023-03-12T11:11:43;6.63;;;3.35;;
17844;SDS011;9047;53.486;10.218;2023-03-12T11:14:15;10.50;;;3.60;;
17844;SDS011;9047;53.486;10.218;2023-03-12T11:16:57;9.88;;;3.40;;
17844;SDS011;9047;53.486;10.218;2023-03-12T11:19:50;6.53;;;3.33;;
17844;SDS011;9047;53.486;10.218;2023-03-12T11:22:30;4.85;;;2.88;;
17844;SDS011;9047;53.486;10.218;2023-03-12T11:24:59;5.60;;;2.83;;
17844;SDS011;9047;53.486;10.218;2023-03-12T11:27:31;8.07;;;3.13;;
17844;SDS011;9047;53.486;10.218;2023-03-12T11:30:04;7.63;;;3.40;;
17844;SDS011;9047;53.486;10.218;2023-03-12T11:32:37;8.40;;;3.28;;
17844;SDS011;9047;53.486;10.218;2023-03-12T11:35:13;6.35;;;2.92;;
17844;SDS011;9047;53.486;10.218;2023-03-12T11:37:45;5.18;;;2.78;;
17844;SDS011;9047;53.486;10.218;2023-03-12T11:40:41;6.35;;;2.67;;
17844;SDS011;9047;53.486;10.218;2023-03-12T11:46:21;6.03;;;2.65;;
17844;SDS011;9047;53.486;10.218;2023-03-12T11:49:02;6.43;;;2.85;;
17844;SDS011;9047;53.486;10.218;2023-03-12T11:51:42;6.07;;;2.80;;
17844;SDS011;9047;53.486;10.218;2023-03-12T11:54:30;5.20;;;2.40;;
17844;SDS011;9047;53.486;10.218;2023-03-12T11:57:37;5.60;;;2.80;;
17844;SDS011;9047;53.486;10.218;2023-03-12T12:00:30;6.95;;;2.80;;
17844;SDS011;9047;53.486;10.218;2023-03-12T12:05:58;8.35;;;2.70;;
17844;SDS011;9047;53.486;10.218;2023-03-12T12:11:27;5.80;;;2.80;;
17844;SDS011;9047;53.486;10.218;2023-03-12T12:14:06;5.35;;;2.47;;
17844;SDS011;9047;53.486;10.218;2023-03-12T12:16:58;7.68;;;2.90;;
17844;SDS011;9047;53.486;10.218;2023-03-12T12:19:38;8.48;;;2.80;;
17844;SDS011;9047;53.486;10.218;2023-03-12T12:22:37;5.30;;;2.67;;
17844;SDS011;9047;53.486;10.218;2023-03-12T12:25:24;7.85;;;3.50;;
17844;SDS011;9047;53.486;10.218;2023-03-12T12:28:29;7.35;;;2.83;;
17844;SDS011;9047;53.486;10.218;2023-03-12T12:31:19;6.68;;;2.70;;
17844;SDS011;9047;53.486;10.218;2023-03-12T12:34:14;9.35;;;2.92;;
17844;SDS011;9047;53.486;10.218;2023-03-12T12:36:51;5.20;;;2.60;;
17844;SDS011;9047;53.486;10.218;2023-03-12T12:39:40;9.23;;;3.90;;
17844;SDS011;9047;53.486;10.218;2023-03-12T12:42:16;5.85;;;2.35;;
17844;SDS011;9047;53.486;10.218;2023-03-12T12:44:50;6.68;;;2.38;;
17844;SDS011;9047;53.486;10.218;2023-03-12T12:47:23;3.45;;;2.20;;
17844;SDS011;9047;53.486;10.218;2023-03-12T12:53:02;6.03;;;2.10;;
17844;SDS011;9047;53.486;10.218;2023-03-12T12:55:39;5.30;;;2.30;;
17844;SDS011;9047;53.486;10.218;2023-03-12T12:58:12;4.75;;;2.38;;
17844;SDS011;9047;53.486;10.218;2023-03-12T13:00:52;4.65;;;2.30;;
17844;SDS011;9047;53.486;10.218;2023-03-12T13:03:42;5.82;;;1.90;;
17844;SDS011;9047;53.486;10.218;2023-03-12T13:06:30;3.38;;;1.80;;
17844;SDS011;9047;53.486;10.218;2023-03-12T13:12:24;4.65;;;2.17;;
17844;SDS011;9047;53.486;10.218;2023-03-12T13:18:08;3.85;;;1.85;;
17844;SDS011;9047;53.486;10.218;2023-03-12T13:21:05;4.35;;;1.75;;
17844;SDS011;9047;53.486;10.218;2023-03-12T13:26:41;4.20;;;1.90;;
17844;SDS011;9047;53.486;10.218;2023-03-12T13:29:20;4.35;;;1.92;;
17844;SDS011;9047;53.486;10.218;2023-03-12T13:32:05;5.90;;;2.10;;
17844;SDS011;9047;53.486;10.218;2023-03-12T13:34:44;6.47;;;2.30;;
17844;SDS011;9047;53.486;10.218;2023-03-12T13:46:47;3.90;;;2.00;;
17844;SDS011;9047;53.486;10.218;2023-03-12T13:49:26;3.78;;;1.95;;
17844;SDS011;9047;53.486;10.218;2023-03-12T13:52:23;4.30;;;1.90;;
17844;SDS011;9047;53.486;10.218;2023-03-12T13:54:58;4.68;;;2.03;;
17844;SDS011;9047;53.486;10.218;2023-03-12T13:57:43;5.70;;;1.70;;
17844;SDS011;9047;53.486;10.218;2023-03-12T14:00:24;5.45;;;2.00;;
17844;SDS011;9047;53.486;10.218;2023-03-12T14:05:57;4.15;;;1.80;;
17844;SDS011;9047;53.486;10.218;2023-03-12T14:11:40;7.30;;;1.75;;
17844;SDS011;9047;53.486;10.218;2023-03-12T14:17:24;5.85;;;1.88;;
17844;SDS011;9047;53.486;10.218;2023-03-12T14:20:20;3.40;;;1.83;;
17844;SDS011;9047;53.486;10.218;2023-03-12T14:22:53;6.63;;;1.98;;
17844;SDS011;9047;53.486;10.218;2023-03-12T14:25:42;3.67;;;2.13;;
17844;SDS011;9047;53.486;10.218;2023-03-12T14:28:18;4.72;;;1.92;;
17844;SDS011;9047;53.486;10.218;2023-03-12T14:30:58;3.90;;;2.20;;
17844;SDS011;9047;53.486;10.218;2023-03-12T14:33:31;4.35;;;2.22;;
17844;SDS011;9047;53.486;10.218;2023-03-12T14:36:06;3.22;;;1.90;;
17844;SDS011;9047;53.486;10.218;2023-03-12T14:41:35;4.68;;;1.98;;
17844;SDS011;9047;53.486;10.218;2023-03-12T14:44:16;6.55;;;2.15;;
17844;SDS011;9047;53.486;10.218;2023-03-12T14:46:54;3.78;;;2.17;;
17844;SDS011;9047;53.486;10.218;2023-03-12T14:49:23;7.60;;;2.30;;
17844;SDS011;9047;53.486;10.218;2023-03-12T14:51:50;5.85;;;2.35;;
17844;SDS011;9047;53.486;10.218;2023-03-12T14:54:21;6.88;;;2.90;;
17844;SDS011;9047;53.486;10.218;2023-03-12T14:56:59;7.20;;;2.67;;
17844;SDS011;9047;53.486;10.218;2023-03-12T14:59:28;6.80;;;2.90;;
17844;SDS011;9047;53.486;10.218;2023-03-12T15:02:13;6.00;;;2.55;;
17844;SDS011;9047;53.486;10.218;2023-03-12T15:04:46;6.75;;;2.60;;
17844;SDS011;9047;53.486;10.218;2023-03-12T15:07:21;5.05;;;2.55;;
17844;SDS011;9047;53.486;10.218;2023-03-12T15:09:54;5.53;;;2.60;;
17844;SDS011;9047;53.486;10.218;2023-03-12T15:12:23;5.00;;;2.95;;
17844;SDS011;9047;53.486;10.218;2023-03-12T15:14:55;4.68;;;2.80;;
17844;SDS011;9047;53.486;10.218;2023-03-12T15:17:33;7.68;;;2.95;;
17844;SDS011;9047;53.486;10.218;2023-03-12T15:20:02;6.00;;;3.03;;
17844;SDS011;9047;53.486;10.218;2023-03-12T15:22:42;9.38;;;3.50;;
17844;SDS011;9047;53.486;10.218;2023-03-12T15:25:24;7.10;;;3.40;;
17844;SDS011;9047;53.486;10.218;2023-03-12T15:28:00;7.03;;;3.72;;
17844;SDS011;9047;53.486;10.218;2023-03-12T15:30:33;7.75;;;3.60;;
17844;SDS011;9047;53.486;10.218;2023-03-12T15:33:08;4.50;;;3.20;;
17844;SDS011;9047;53.486;10.218;2023-03-12T15:35:38;7.35;;;3.33;;
17844;SDS011;9047;53.486;10.218;2023-03-12T15:38:12;6.95;;;3.65;;
17844;SDS011;9047;53.486;10.218;2023-03-12T15:40:47;5.38;;;3.67;;
17844;SDS011;9047;53.486;10.218;2023-03-12T15:43:19;6.47;;;4.10;;
17844;SDS011;9047;53.486;10.218;2023-03-12T15:45:55;7.20;;;4.22;;
17844;SDS011;9047;53.486;10.218;2023-03-12T15:48:28;6.60;;;4.18;;
17844;SDS011;9047;53.486;10.218;2023-03-12T15:51:09;7.68;;;4.40;;
17844;SDS011;9047;53.486;10.218;2023-03-12T15:53:38;7.47;;;5.00;;
17844;SDS011;9047;53.486;10.218;2023-03-12T15:56:19;7.00;;;4.75;;
17844;SDS011;9047;53.486;10.218;2023-03-12T15:59:00;8.45;;;4.82;;
17844;SDS011;9047;53.486;10.218;2023-03-12T16:01:42;7.95;;;5.00;;
17844;SDS011;9047;53.486;10.218;2023-03-12T16:04:15;6.95;;;4.80;;